createdAt,value
2023-04-18T00:00:28.858Z,6.43
2023-04-18T00:00:59.324Z,6.43
2023-04-18T00:01:31.435Z,6.43
2023-04-18T00:02:03.373Z,6.43
2023-04-18T00:02:35.381Z,6.68
2023-04-18T00:03:07.463Z,6.68
2023-04-18T00:03:37.151Z,6.92
2023-04-18T00:03:55.472Z,6.92
2023-04-18T00:04:27.523Z,6.92
2023-04-18T00:04:59.398Z,6.68
2023-04-18T00:05:32.030Z,6.68
2023-04-18T00:06:03.272Z,6.68
2023-04-18T00:06:35.266Z,6.43
2023-04-18T00:07:07.471Z,6.43
2023-04-18T00:07:37.008Z,6.43
2023-04-18T00:07:55.903Z,6.43
2023-04-18T00:08:27.459Z,6.27
2023-04-18T00:08:59.510Z,6.27
2023-04-18T00:09:31.475Z,6.43
2023-04-18T00:10:04.601Z,6.68
2023-04-18T00:10:35.934Z,6.68
2023-04-18T00:11:07.310Z,6.92
2023-04-18T00:11:36.670Z,6.92
2023-04-18T00:11:55.830Z,6.92
2023-04-18T00:12:27.455Z,6.92
2023-04-18T00:12:59.446Z,6.92
2023-04-18T00:13:31.542Z,6.92
2023-04-18T00:14:04.537Z,6.68
2023-04-18T00:14:35.230Z,6.68
2023-04-18T00:15:08.434Z,6.92
2023-04-18T00:15:36.723Z,6.92
2023-04-18T00:15:55.755Z,6.92
2023-04-18T00:16:27.609Z,6.92
2023-04-18T00:16:59.725Z,6.92
2023-04-18T00:17:31.515Z,6.92
2023-04-18T00:18:03.398Z,6.92
2023-04-18T00:18:35.489Z,6.92
2023-04-18T00:19:07.348Z,6.92
2023-04-18T00:19:36.747Z,6.68
2023-04-18T00:19:55.260Z,6.43
2023-04-18T00:20:27.834Z,6.27
2023-04-18T00:20:59.338Z,6.11
2023-04-18T00:21:31.542Z,5.95
2023-04-18T00:22:03.255Z,6.11
2023-04-18T00:22:35.654Z,6.27
2023-04-18T00:23:07.270Z,6.27
2023-04-18T00:23:37.062Z,6.27
2023-04-18T00:23:55.343Z,6.27
2023-04-18T00:24:27.370Z,6.68
2023-04-18T00:24:59.447Z,6.27
2023-04-18T00:25:31.959Z,6.27
2023-04-18T00:26:03.549Z,6.68
2023-04-18T00:26:35.424Z,7.08
2023-04-18T00:27:07.403Z,7.24
2023-04-18T00:27:36.909Z,7.24
2023-04-18T00:27:55.350Z,7.24
2023-04-18T00:28:27.488Z,7.24
2023-04-18T00:28:59.313Z,7.24
2023-04-18T00:29:31.576Z,7.24
2023-04-18T00:30:05.720Z,7.24
2023-04-18T00:30:35.377Z,7.24
2023-04-18T00:31:07.443Z,7.56
2023-04-18T00:31:37.078Z,7.88
2023-04-18T00:31:55.304Z,8.04
2023-04-18T00:32:27.400Z,8.45
2023-04-18T00:32:59.601Z,8.04
2023-04-18T00:33:31.628Z,8.45
2023-04-18T00:34:03.248Z,8.04
2023-04-18T00:34:35.431Z,8.04
2023-04-18T00:35:08.476Z,8.45
2023-04-18T00:35:36.806Z,8.45
2023-04-18T00:35:55.771Z,8.04
2023-04-18T00:36:27.861Z,7.88
2023-04-18T00:36:59.346Z,7.88
2023-04-18T00:37:31.568Z,8.29
2023-04-18T00:38:03.357Z,8.29
2023-04-18T00:38:35.228Z,8.69
2023-04-18T00:39:07.673Z,8.69
2023-04-18T00:39:37.504Z,8.69
2023-04-18T00:39:55.291Z,8.69
2023-04-18T00:40:27.753Z,8.69
2023-04-18T00:40:59.545Z,8.69
2023-04-18T00:41:31.566Z,8.69
2023-04-18T00:42:03.306Z,8.69
2023-04-18T00:42:35.263Z,8.69
2023-04-18T00:43:07.293Z,8.69
2023-04-18T00:43:36.962Z,8.29
2023-04-18T00:43:55.336Z,8.69
2023-04-18T00:44:27.385Z,8.29
2023-04-18T00:44:59.707Z,8.29
2023-04-18T00:45:32.510Z,7.88
2023-04-18T00:46:03.320Z,8.29
2023-04-18T00:46:35.672Z,8.69
2023-04-18T00:47:07.377Z,8.69
2023-04-18T00:47:36.703Z,8.69
2023-04-18T00:47:55.540Z,8.69
2023-04-18T00:48:27.516Z,8.69
2023-04-18T00:48:59.767Z,8.69
2023-04-18T00:49:31.491Z,8.69
2023-04-18T00:50:04.739Z,8.69
2023-04-18T00:50:35.375Z,8.69
2023-04-18T00:51:07.389Z,8.69
2023-04-18T00:51:36.894Z,8.69
2023-04-18T00:51:55.297Z,8.29
2023-04-18T00:52:27.403Z,8.29
2023-04-18T00:52:59.303Z,8.29
2023-04-18T00:53:31.578Z,8.29
2023-04-18T00:54:03.260Z,7.72
2023-04-18T00:54:36.062Z,7.72
2023-04-18T00:55:07.992Z,7.40
2023-04-18T00:55:36.711Z,7.72
2023-04-18T00:55:55.983Z,7.72
2023-04-18T00:56:27.528Z,7.72
2023-04-18T00:56:59.404Z,7.72
2023-04-18T00:57:31.797Z,7.72
2023-04-18T00:58:03.278Z,7.72
2023-04-18T00:58:35.821Z,7.72
2023-04-18T00:59:07.393Z,7.72
2023-04-18T00:59:36.746Z,7.72
2023-04-18T00:59:55.392Z,7.88
2023-04-18T01:00:28.515Z,7.88
2023-04-18T01:00:59.655Z,7.88
2023-04-18T01:01:31.676Z,7.88
2023-04-18T01:02:03.375Z,7.88
2023-04-18T01:02:35.594Z,8.29
2023-04-18T01:03:23.525Z,8.45
2023-04-18T01:03:55.496Z,8.69
2023-04-18T01:04:27.492Z,8.69
2023-04-18T01:04:59.236Z,8.85
2023-04-18T01:05:31.936Z,8.85
2023-04-18T01:06:03.348Z,8.69
2023-04-18T01:06:35.321Z,8.69
2023-04-18T01:07:07.373Z,8.69
2023-04-18T01:07:36.915Z,8.69
2023-04-18T01:07:55.420Z,8.69
2023-04-18T01:08:27.572Z,8.69
2023-04-18T01:08:59.257Z,8.69
2023-04-18T01:09:31.785Z,8.69
2023-04-18T01:10:04.836Z,8.69
2023-04-18T01:10:36.205Z,8.45
2023-04-18T01:11:07.401Z,8.45
2023-04-18T01:11:36.693Z,8.45
2023-04-18T01:11:55.432Z,8.69
2023-04-18T01:12:27.658Z,8.69
2023-04-18T01:12:59.396Z,8.69
2023-04-18T01:13:31.551Z,8.69
2023-04-18T01:14:03.266Z,8.69
2023-04-18T01:14:36.946Z,8.29
2023-04-18T01:15:08.652Z,7.56
2023-04-18T01:15:37.284Z,7.88
2023-04-18T01:15:55.921Z,8.29
2023-04-18T01:16:27.480Z,8.29
2023-04-18T01:16:59.412Z,7.88
2023-04-18T01:17:31.625Z,7.56
2023-04-18T01:18:03.439Z,7.08
2023-04-18T01:18:35.276Z,6.92
2023-04-18T01:19:07.278Z,7.08
2023-04-18T01:19:36.589Z,7.40
2023-04-18T01:19:55.365Z,7.40
2023-04-18T01:20:28.005Z,7.72
2023-04-18T01:20:59.351Z,7.40
2023-04-18T01:21:31.736Z,7.40
2023-04-18T01:22:03.401Z,7.40
2023-04-18T01:22:35.314Z,7.40
2023-04-18T01:23:07.238Z,7.72
2023-04-18T01:23:36.648Z,7.24
2023-04-18T01:23:55.342Z,7.72
2023-04-18T01:24:27.884Z,7.72
2023-04-18T01:24:59.748Z,7.72
2023-04-18T01:25:31.890Z,7.88
2023-04-18T01:26:03.506Z,7.88
2023-04-18T01:26:35.329Z,7.88
2023-04-18T01:27:07.465Z,8.77
2023-04-18T01:27:36.586Z,9.49
2023-04-18T01:27:55.391Z,9.65
2023-04-18T01:28:27.910Z,9.89
2023-04-18T01:28:59.394Z,9.89
2023-04-18T01:29:31.501Z,9.89
2023-04-18T01:30:05.537Z,9.49
2023-04-18T01:30:35.757Z,8.77
2023-04-18T01:31:07.374Z,8.77
2023-04-18T01:31:36.645Z,8.77
2023-04-18T01:31:55.384Z,7.72
2023-04-18T01:32:27.793Z,7.72
2023-04-18T01:32:59.541Z,7.72
2023-04-18T01:33:32.247Z,8.20
2023-04-18T01:34:03.356Z,8.04
2023-04-18T01:34:35.506Z,8.20
2023-04-18T01:35:08.088Z,8.45
2023-04-18T01:35:37.494Z,8.45
2023-04-18T01:35:55.844Z,8.45
2023-04-18T01:36:27.554Z,8.45
2023-04-18T01:36:59.255Z,8.20
2023-04-18T01:37:31.478Z,8.04
2023-04-18T01:38:03.336Z,8.04
2023-04-18T01:38:35.351Z,8.04
2023-04-18T01:39:07.356Z,8.20
2023-04-18T01:39:37.120Z,8.45
2023-04-18T01:39:55.377Z,8.69
2023-04-18T01:40:28.007Z,8.69
2023-04-18T01:40:59.412Z,8.69
2023-04-18T01:41:31.510Z,8.69
2023-04-18T01:42:03.425Z,8.69
2023-04-18T01:42:35.761Z,8.69
2023-04-18T01:43:07.247Z,8.69
2023-04-18T01:43:37.469Z,8.69
2023-04-18T01:43:55.389Z,8.69
2023-04-18T01:44:27.690Z,8.69
2023-04-18T01:44:59.421Z,8.29
2023-04-18T01:45:32.867Z,8.29
2023-04-18T01:46:03.535Z,8.29
2023-04-18T01:46:35.415Z,8.29
2023-04-18T01:47:07.420Z,8.69
2023-04-18T01:47:36.675Z,8.69
2023-04-18T01:47:55.503Z,8.85
2023-04-18T01:48:27.485Z,9.01
2023-04-18T01:48:59.360Z,9.01
2023-04-18T01:49:31.527Z,9.01
2023-04-18T01:50:04.984Z,9.01
2023-04-18T01:50:35.792Z,9.33
2023-04-18T01:51:07.344Z,9.49
2023-04-18T01:51:36.573Z,10.06
2023-04-18T01:51:55.631Z,10.78
2023-04-18T01:52:27.515Z,10.78
2023-04-18T01:52:59.308Z,11.10
2023-04-18T01:53:31.646Z,11.10
2023-04-18T01:54:03.330Z,11.10
2023-04-18T01:54:35.807Z,11.10
2023-04-18T01:55:07.970Z,11.34
2023-04-18T01:55:36.716Z,11.74
2023-04-18T01:55:55.860Z,11.74
2023-04-18T01:56:27.604Z,11.74
2023-04-18T01:56:59.349Z,11.34
2023-04-18T01:57:31.554Z,11.34
2023-04-18T01:58:03.325Z,11.74
2023-04-18T01:58:35.378Z,11.74
2023-04-18T01:59:07.490Z,11.34
2023-04-18T01:59:36.784Z,11.58
2023-04-18T01:59:55.527Z,11.34
2023-04-18T02:00:28.544Z,11.34
2023-04-18T02:00:59.467Z,11.34
2023-04-18T02:01:31.719Z,10.78
2023-04-18T02:02:03.409Z,10.78
2023-04-18T02:02:35.511Z,10.78
2023-04-18T02:03:07.373Z,10.46
2023-04-18T02:03:36.888Z,10.46
2023-04-18T02:03:55.804Z,10.46
2023-04-18T02:04:27.554Z,10.46
2023-04-18T02:04:59.497Z,9.90
2023-04-18T02:05:32.077Z,9.90
2023-04-18T02:06:03.416Z,9.90
2023-04-18T02:06:35.590Z,10.46
2023-04-18T02:07:07.434Z,10.46
2023-04-18T02:07:36.511Z,10.46
2023-04-18T02:07:55.414Z,10.46
2023-04-18T02:08:27.557Z,10.46
2023-04-18T02:08:59.416Z,10.46
2023-04-18T02:09:31.581Z,10.46
2023-04-18T02:10:04.937Z,10.46
2023-04-18T02:10:35.568Z,11.02
2023-04-18T02:11:07.442Z,11.02
2023-04-18T02:11:36.752Z,11.02
2023-04-18T02:11:55.426Z,10.46
2023-04-18T02:12:27.493Z,10.06
2023-04-18T02:12:59.365Z,10.06
2023-04-18T02:13:31.547Z,10.06
2023-04-18T02:14:03.322Z,10.06
2023-04-18T02:14:35.416Z,10.06
2023-04-18T02:15:10.282Z,10.06
2023-04-18T02:15:36.968Z,9.17
2023-04-18T02:15:55.959Z,8.85
2023-04-18T02:16:27.588Z,8.69
2023-04-18T02:16:59.694Z,8.69
2023-04-18T02:17:31.578Z,8.69
2023-04-18T02:18:03.391Z,8.69
2023-04-18T02:18:35.640Z,8.29
2023-04-18T02:19:07.324Z,7.72
2023-04-18T02:19:37.243Z,7.56
2023-04-18T02:19:55.410Z,7.56
2023-04-18T02:20:27.922Z,7.40
2023-04-18T02:20:59.351Z,7.40
2023-04-18T02:21:31.538Z,7.24
2023-04-18T02:22:03.393Z,7.24
2023-04-18T02:22:35.396Z,7.24
2023-04-18T02:23:07.376Z,7.24
2023-04-18T02:23:36.555Z,7.40
2023-04-18T02:23:55.965Z,7.56
2023-04-18T02:24:27.580Z,7.56
2023-04-18T02:24:59.278Z,7.56
2023-04-18T02:25:31.962Z,7.56
2023-04-18T02:26:03.406Z,7.56
2023-04-18T02:26:35.285Z,7.72
2023-04-18T02:27:07.288Z,7.72
2023-04-18T02:27:37.231Z,7.56
2023-04-18T02:27:55.958Z,7.72
2023-04-18T02:28:27.513Z,8.04
2023-04-18T02:28:59.259Z,8.45
2023-04-18T02:29:31.620Z,8.69
2023-04-18T02:30:05.568Z,8.69
2023-04-18T02:30:35.663Z,9.01
2023-04-18T02:31:07.408Z,9.49
2023-04-18T02:31:36.666Z,9.65
2023-04-18T02:31:55.513Z,10.06
2023-04-18T02:32:27.635Z,10.06
2023-04-18T02:32:59.970Z,10.06
2023-04-18T02:33:31.521Z,10.06
2023-04-18T02:34:03.264Z,9.49
2023-04-18T02:34:35.671Z,9.33
2023-04-18T02:35:07.970Z,9.33
2023-04-18T02:35:36.874Z,9.33
2023-04-18T02:35:55.730Z,9.33
2023-04-18T02:36:27.591Z,9.49
2023-04-18T02:36:59.348Z,10.06
2023-04-18T02:37:31.522Z,10.62
2023-04-18T02:38:03.378Z,10.06
2023-04-18T02:38:35.348Z,9.49
2023-04-18T02:39:07.543Z,9.01
2023-04-18T02:39:36.755Z,8.29
2023-04-18T02:39:55.448Z,7.88
2023-04-18T02:40:27.978Z,7.88
2023-04-18T02:40:59.414Z,7.88
2023-04-18T02:41:31.495Z,7.88
2023-04-18T02:42:03.901Z,7.88
2023-04-18T02:42:35.786Z,7.88
2023-04-18T02:43:07.451Z,8.29
2023-04-18T02:43:36.604Z,8.85
2023-04-18T02:43:55.856Z,9.01
2023-04-18T02:44:27.575Z,9.17
2023-04-18T02:44:59.410Z,9.17
2023-04-18T02:45:32.568Z,9.49
2023-04-18T02:46:03.428Z,10.06
2023-04-18T02:46:35.298Z,10.06
2023-04-18T02:47:07.499Z,10.06
2023-04-18T02:47:47.052Z,9.65
2023-04-18T02:47:56.665Z,9.65
2023-04-18T02:48:27.508Z,10.06
2023-04-18T02:48:59.513Z,10.46
2023-04-18T02:49:31.617Z,10.78
2023-04-18T02:50:04.863Z,11.34
2023-04-18T02:50:35.299Z,11.34
2023-04-18T02:51:07.959Z,10.78
2023-04-18T02:51:36.525Z,10.30
2023-04-18T02:51:55.678Z,10.30
2023-04-18T02:52:27.575Z,10.30
2023-04-18T02:52:59.222Z,10.30
2023-04-18T02:53:31.633Z,10.30
2023-04-18T02:54:03.258Z,10.30
2023-04-18T02:54:35.183Z,10.30
2023-04-18T02:55:07.927Z,10.78
2023-04-18T02:55:36.787Z,10.78
2023-04-18T02:55:55.736Z,10.78
2023-04-18T02:56:27.698Z,10.78
2023-04-18T02:56:59.385Z,10.30
2023-04-18T02:57:31.519Z,10.30
2023-04-18T02:58:03.481Z,10.30
2023-04-18T02:58:35.662Z,9.89
2023-04-18T02:59:07.369Z,9.65
2023-04-18T02:59:36.653Z,9.49
2023-04-18T02:59:55.457Z,9.49
2023-04-18T03:00:29.039Z,9.49
2023-04-18T03:00:59.713Z,9.65
2023-04-18T03:01:31.819Z,10.06
2023-04-18T03:02:03.490Z,11.18
2023-04-18T03:02:35.482Z,11.18
2023-04-18T03:03:07.848Z,11.18
2023-04-18T03:03:36.611Z,10.06
2023-04-18T03:03:55.488Z,9.90
2023-04-18T03:04:27.662Z,10.62
2023-04-18T03:04:59.512Z,9.90
2023-04-18T03:05:31.985Z,9.90
2023-04-18T03:06:03.423Z,9.90
2023-04-18T03:06:35.545Z,9.17
2023-04-18T03:07:07.448Z,9.90
2023-04-18T03:07:36.708Z,10.46
2023-04-18T03:07:55.349Z,10.46
2023-04-18T03:08:27.577Z,10.46
2023-04-18T03:08:59.634Z,10.46
2023-04-18T03:09:31.525Z,10.46
2023-04-18T03:10:04.837Z,10.46
2023-04-18T03:10:35.296Z,9.90
2023-04-18T03:11:07.471Z,9.49
2023-04-18T03:11:36.617Z,9.49
2023-04-18T03:11:55.301Z,9.49
2023-04-18T03:12:27.677Z,9.49
2023-04-18T03:12:59.602Z,9.49
2023-04-18T03:13:31.621Z,9.89
2023-04-18T03:14:03.509Z,10.30
2023-04-18T03:14:35.358Z,10.30
2023-04-18T03:15:08.785Z,10.30
2023-04-18T03:15:37.044Z,10.13
2023-04-18T03:15:57.168Z,10.13
2023-04-18T03:16:27.640Z,10.30
2023-04-18T03:16:59.280Z,10.30
2023-04-18T03:17:31.571Z,10.30
2023-04-18T03:18:03.384Z,10.13
2023-04-18T03:18:35.299Z,10.13
2023-04-18T03:19:07.340Z,10.13
2023-04-18T03:19:36.641Z,10.13
2023-04-18T03:19:55.378Z,10.62
2023-04-18T03:20:28.062Z,11.10
2023-04-18T03:20:59.403Z,11.10
2023-04-18T03:21:31.561Z,10.94
2023-04-18T03:22:03.607Z,10.78
2023-04-18T03:22:35.438Z,10.78
2023-04-18T03:23:07.347Z,10.78
2023-04-18T03:23:36.702Z,10.78
2023-04-18T03:23:55.857Z,10.46
2023-04-18T03:24:27.551Z,10.46
2023-04-18T03:24:59.484Z,10.30
2023-04-18T03:25:32.009Z,9.90
2023-04-18T03:26:03.624Z,9.01
2023-04-18T03:26:35.267Z,8.45
2023-04-18T03:27:07.480Z,7.88
2023-04-18T03:27:37.815Z,7.56
2023-04-18T03:27:55.354Z,7.88
2023-04-18T03:28:27.535Z,7.88
2023-04-18T03:28:59.438Z,8.13
2023-04-18T03:29:31.596Z,8.61
2023-04-18T03:30:05.482Z,8.61
2023-04-18T03:30:35.298Z,8.61
2023-04-18T03:31:07.508Z,8.61
2023-04-18T03:31:37.073Z,8.13
2023-04-18T03:31:55.647Z,9.17
2023-04-18T03:32:27.661Z,10.06
2023-04-18T03:32:59.563Z,10.06
2023-04-18T03:33:31.709Z,10.06
2023-04-18T03:34:03.398Z,10.06
2023-04-18T03:34:35.312Z,10.06
2023-04-18T03:35:07.847Z,10.38
2023-04-18T03:35:36.679Z,10.38
2023-04-18T03:35:55.944Z,11.10
2023-04-18T03:36:27.873Z,11.34
2023-04-18T03:36:59.558Z,11.74
2023-04-18T03:37:31.508Z,11.90
2023-04-18T03:38:03.540Z,11.90
2023-04-18T03:38:35.423Z,11.90
2023-04-18T03:39:07.525Z,11.90
2023-04-18T03:39:36.892Z,11.90
2023-04-18T03:39:55.393Z,11.90
2023-04-18T03:40:28.254Z,11.90
2023-04-18T03:40:59.483Z,11.90
2023-04-18T03:41:32.071Z,11.90
2023-04-18T03:42:03.425Z,11.90
2023-04-18T03:42:35.333Z,11.50
2023-04-18T03:43:07.508Z,11.50
2023-04-18T03:43:36.599Z,11.50
2023-04-18T03:43:55.415Z,11.50
2023-04-18T03:44:27.458Z,11.10
2023-04-18T03:44:59.496Z,11.10
2023-04-18T03:45:33.035Z,11.10
2023-04-18T03:46:03.630Z,11.10
2023-04-18T03:46:35.435Z,11.10
2023-04-18T03:47:07.648Z,11.10
2023-04-18T03:47:36.697Z,10.94
2023-04-18T03:47:55.497Z,10.62
2023-04-18T03:48:27.492Z,10.94
2023-04-18T03:48:59.830Z,10.62
2023-04-18T03:49:31.575Z,10.46
2023-04-18T03:50:05.061Z,10.46
2023-04-18T03:50:36.246Z,10.30
2023-04-18T03:51:07.530Z,10.30
2023-04-18T03:51:37.380Z,10.30
2023-04-18T03:51:55.582Z,10.30
2023-04-18T03:52:29.726Z,10.30
2023-04-18T03:52:59.412Z,9.89
2023-04-18T03:53:31.676Z,10.30
2023-04-18T03:54:03.328Z,10.46
2023-04-18T03:54:35.439Z,10.30
2023-04-18T03:55:07.951Z,9.89
2023-04-18T03:55:36.979Z,9.17
2023-04-18T03:55:55.864Z,9.89
2023-04-18T03:56:27.730Z,10.30
2023-04-18T03:56:59.442Z,10.30
2023-04-18T03:57:31.634Z,10.78
2023-04-18T03:58:03.354Z,11.34
2023-04-18T03:58:35.461Z,11.34
2023-04-18T03:59:07.687Z,11.34
2023-04-18T03:59:36.780Z,11.34
2023-04-18T03:59:55.435Z,11.34
2023-04-18T04:00:28.524Z,11.34
2023-04-18T04:00:59.921Z,10.78
2023-04-18T04:01:31.883Z,10.62
2023-04-18T04:02:03.767Z,10.46
2023-04-18T04:02:35.730Z,10.46
2023-04-18T04:03:07.763Z,10.62
2023-04-18T04:03:36.964Z,10.62
2023-04-18T04:03:55.505Z,10.46
2023-04-18T04:04:27.562Z,10.62
2023-04-18T04:04:59.420Z,10.62
2023-04-18T04:05:32.011Z,10.78
2023-04-18T04:06:03.395Z,10.78
2023-04-18T04:06:35.447Z,10.62
2023-04-18T04:07:07.390Z,10.46
2023-04-18T04:07:37.154Z,10.46
2023-04-18T04:07:55.445Z,10.46
2023-04-18T04:08:28.295Z,10.46
2023-04-18T04:08:59.402Z,10.46
2023-04-18T04:09:31.578Z,10.46
2023-04-18T04:10:04.777Z,10.46
2023-04-18T04:10:35.627Z,10.46
2023-04-18T04:11:07.393Z,10.46
2023-04-18T04:11:36.787Z,10.46
2023-04-18T04:11:55.533Z,10.30
2023-04-18T04:12:27.530Z,10.30
2023-04-18T04:12:59.486Z,9.73
2023-04-18T04:13:31.837Z,9.73
2023-04-18T04:14:03.668Z,9.33
2023-04-18T04:14:35.457Z,9.01
2023-04-18T04:15:08.863Z,9.01
2023-04-18T04:15:37.081Z,9.01
2023-04-18T04:15:55.982Z,9.01
2023-04-18T04:16:27.655Z,9.33
2023-04-18T04:16:59.428Z,9.73
2023-04-18T04:17:31.649Z,9.01
2023-04-18T04:18:03.485Z,9.01
2023-04-18T04:18:35.665Z,9.73
2023-04-18T04:19:07.627Z,9.73
2023-04-18T04:19:37.075Z,9.41
2023-04-18T04:19:55.713Z,8.69
2023-04-18T04:20:28.344Z,9.41
2023-04-18T04:20:59.654Z,8.85
2023-04-18T04:21:31.802Z,10.06
2023-04-18T04:22:03.668Z,11.10
2023-04-18T04:22:35.658Z,11.10
2023-04-18T04:23:07.711Z,11.10
2023-04-18T04:23:36.936Z,11.10
2023-04-18T04:23:55.692Z,11.10
2023-04-18T04:24:27.763Z,11.10
2023-04-18T04:24:59.719Z,11.34
2023-04-18T04:25:32.125Z,11.10
2023-04-18T04:26:03.674Z,10.62
2023-04-18T04:26:35.565Z,9.57
2023-04-18T04:27:07.714Z,9.17
2023-04-18T04:27:37.545Z,9.17
2023-04-18T04:27:55.672Z,9.17
2023-04-18T04:28:27.819Z,8.85
2023-04-18T04:28:59.852Z,8.85
2023-04-18T04:29:31.734Z,8.85
2023-04-18T04:30:05.636Z,8.85
2023-04-18T04:30:35.624Z,8.85
2023-04-18T04:31:07.767Z,9.01
2023-04-18T04:31:37.230Z,9.01
2023-04-18T04:31:56.132Z,9.01
2023-04-18T04:32:27.837Z,9.01
2023-04-18T04:32:59.818Z,9.01
2023-04-18T04:33:31.894Z,9.01
2023-04-18T04:34:03.837Z,9.01
2023-04-18T04:34:36.150Z,9.01
2023-04-18T04:35:08.479Z,8.45
2023-04-18T04:35:37.006Z,8.69
2023-04-18T04:35:56.285Z,8.69
2023-04-18T04:36:27.878Z,8.69
2023-04-18T04:37:00.049Z,8.69
2023-04-18T04:37:31.797Z,9.01
2023-04-18T04:38:03.753Z,9.01
2023-04-18T04:38:35.523Z,9.01
2023-04-18T04:39:07.898Z,8.69
2023-04-18T04:39:37.041Z,8.45
2023-04-18T04:39:55.516Z,8.45
2023-04-18T04:40:28.227Z,8.20
2023-04-18T04:40:59.861Z,7.31
2023-04-18T04:41:31.793Z,6.27
2023-04-18T04:42:03.527Z,5.79
2023-04-18T04:42:35.904Z,6.27
2023-04-18T04:43:07.766Z,6.27
2023-04-18T04:43:37.632Z,6.27
2023-04-18T04:43:55.718Z,6.27
2023-04-18T04:44:27.840Z,5.95
2023-04-18T04:44:59.745Z,6.83
2023-04-18T04:45:32.895Z,6.83
2023-04-18T04:46:04.211Z,6.83
2023-04-18T04:46:35.829Z,8.45
2023-04-18T04:47:07.755Z,8.45
2023-04-18T04:47:36.856Z,8.45
2023-04-18T04:47:55.719Z,7.56
2023-04-18T04:48:27.852Z,8.29
2023-04-18T04:48:59.954Z,8.69
2023-04-18T04:49:31.848Z,9.41
2023-04-18T04:50:05.455Z,9.73
2023-04-18T04:50:35.919Z,9.73
2023-04-18T04:51:07.864Z,10.13
2023-04-18T04:51:37.530Z,10.13
2023-04-18T04:51:55.693Z,10.46
2023-04-18T04:52:27.906Z,10.46
2023-04-18T04:53:00.060Z,10.94
2023-04-18T04:53:32.157Z,10.94
2023-04-18T04:54:03.585Z,11.50
2023-04-18T04:54:35.948Z,11.50
2023-04-18T04:55:08.729Z,10.62
2023-04-18T04:55:37.321Z,10.62
2023-04-18T04:55:56.211Z,9.89
2023-04-18T04:56:27.880Z,9.65
2023-04-18T04:56:59.509Z,9.49
2023-04-18T04:57:31.738Z,9.01
2023-04-18T04:58:03.606Z,9.01
2023-04-18T04:58:35.793Z,9.49
2023-04-18T04:59:07.949Z,9.49
2023-04-18T04:59:37.535Z,9.49
2023-04-18T04:59:55.721Z,9.65
2023-04-18T05:00:28.831Z,9.65
2023-04-18T05:00:59.710Z,9.65
2023-04-18T05:01:31.945Z,9.65
2023-04-18T05:02:03.700Z,9.49
2023-04-18T05:02:35.902Z,9.49
2023-04-18T05:03:07.958Z,9.33
2023-04-18T05:03:37.283Z,9.33
2023-04-18T05:03:55.910Z,9.17
2023-04-18T05:04:28.107Z,9.17
2023-04-18T05:04:59.898Z,9.33
2023-04-18T05:05:32.144Z,9.17
2023-04-18T05:06:03.535Z,9.17
2023-04-18T05:06:35.655Z,9.33
2023-04-18T05:07:07.656Z,9.33
2023-04-18T05:07:37.434Z,9.33
2023-04-18T05:07:55.548Z,9.33
2023-04-18T05:08:27.884Z,9.17
2023-04-18T05:08:59.647Z,9.17
2023-04-18T05:09:31.892Z,9.17
2023-04-18T05:10:06.618Z,9.17
2023-04-18T05:10:36.615Z,9.17
2023-04-18T05:11:07.819Z,9.17
2023-04-18T05:11:37.740Z,9.49
2023-04-18T05:11:55.667Z,9.49
2023-04-18T05:12:27.858Z,9.17
2023-04-18T05:12:59.643Z,9.17
2023-04-18T05:13:31.866Z,8.85
2023-04-18T05:14:03.703Z,8.85
2023-04-18T05:14:35.960Z,8.85
2023-04-18T05:15:09.047Z,8.85
2023-04-18T05:15:37.107Z,8.69
2023-04-18T05:15:56.328Z,9.01
2023-04-18T05:16:27.970Z,8.69
2023-04-18T05:16:59.680Z,8.69
2023-04-18T05:17:31.907Z,9.01
2023-04-18T05:18:03.726Z,9.17
2023-04-18T05:18:35.795Z,9.17
2023-04-18T05:19:07.669Z,8.85
2023-04-18T05:19:37.038Z,8.45
2023-04-18T05:19:56.086Z,8.04
2023-04-18T05:20:28.198Z,7.88
2023-04-18T05:20:59.723Z,7.88
2023-04-18T05:21:31.835Z,7.88
2023-04-18T05:22:03.607Z,8.04
2023-04-18T05:22:35.654Z,8.45
2023-04-18T05:23:07.657Z,8.45
2023-04-18T05:23:37.229Z,8.04
2023-04-18T05:23:55.742Z,8.45
2023-04-18T05:24:27.843Z,8.20
2023-04-18T05:24:59.936Z,8.20
2023-04-18T05:25:32.449Z,8.20
2023-04-18T05:26:03.729Z,8.20
2023-04-18T05:26:36.377Z,8.20
2023-04-18T05:27:07.799Z,8.04
2023-04-18T05:27:37.150Z,7.88
2023-04-18T05:27:55.778Z,7.88
2023-04-18T05:28:27.819Z,8.04
2023-04-18T05:28:59.780Z,8.20
2023-04-18T05:29:31.778Z,8.20
2023-04-18T05:30:05.951Z,8.20
2023-04-18T05:30:36.106Z,8.45
2023-04-18T05:31:07.836Z,8.45
2023-04-18T05:31:37.459Z,8.45
2023-04-18T05:31:55.759Z,8.20
2023-04-18T05:32:27.780Z,8.20
2023-04-18T05:32:59.768Z,8.20
2023-04-18T05:33:31.874Z,8.45
2023-04-18T05:34:03.731Z,8.20
2023-04-18T05:34:38.030Z,8.45
2023-04-18T05:35:08.263Z,8.04
2023-04-18T05:35:37.314Z,8.29
2023-04-18T05:35:56.397Z,8.69
2023-04-18T05:36:28.436Z,8.69
2023-04-18T05:36:59.673Z,9.01
2023-04-18T05:37:32.050Z,9.33
2023-04-18T05:38:03.529Z,9.33
2023-04-18T05:38:35.759Z,10.62
2023-04-18T05:39:07.807Z,11.90
2023-04-18T05:39:36.987Z,11.90
2023-04-18T05:39:55.703Z,11.90
2023-04-18T05:40:28.274Z,11.90
2023-04-18T05:40:59.643Z,11.90
2023-04-18T05:41:32.260Z,11.18
2023-04-18T05:42:03.683Z,12.23
2023-04-18T05:42:35.857Z,11.18
2023-04-18T05:43:07.790Z,11.18
2023-04-18T05:43:37.379Z,11.74
2023-04-18T05:44:04.700Z,11.74
2023-04-18T05:44:27.778Z,11.74
2023-04-18T05:45:01.264Z,11.74
2023-04-18T05:45:31.942Z,11.02
2023-04-18T05:46:03.695Z,10.30
2023-04-18T05:46:35.901Z,9.89
2023-04-18T05:47:07.814Z,9.89
2023-04-18T05:47:37.724Z,9.49
2023-04-18T05:47:55.897Z,9.49
2023-04-18T05:48:27.740Z,9.33
2023-04-18T05:49:00.033Z,9.33
2023-04-18T05:49:31.966Z,9.33
2023-04-18T05:50:05.395Z,9.33
2023-04-18T05:50:36.089Z,9.49
2023-04-18T05:51:09.485Z,9.33
2023-04-18T05:51:37.758Z,9.33
2023-04-18T05:51:55.697Z,9.33
2023-04-18T05:52:27.838Z,9.49
2023-04-18T05:52:59.602Z,9.89
2023-04-18T05:53:31.928Z,9.89
2023-04-18T05:54:03.801Z,10.06
2023-04-18T05:54:36.143Z,10.46
2023-04-18T05:55:08.393Z,11.18
2023-04-18T05:55:36.831Z,12.47
2023-04-18T05:55:55.957Z,13.19
2023-04-18T05:56:27.910Z,13.35
2023-04-18T05:56:59.689Z,13.35
2023-04-18T05:57:31.952Z,13.35
2023-04-18T05:58:03.490Z,13.19
2023-04-18T05:58:35.604Z,13.19
2023-04-18T05:59:07.577Z,12.79
2023-04-18T05:59:37.127Z,12.79
2023-04-18T05:59:55.584Z,12.79
2023-04-18T06:00:29.089Z,12.79
2023-04-18T06:00:59.717Z,12.79
2023-04-18T06:01:31.964Z,12.79
2023-04-18T06:02:03.807Z,12.39
2023-04-18T06:02:36.306Z,12.79
2023-04-18T06:03:10.098Z,12.79
2023-04-18T06:03:37.362Z,12.39
2023-04-18T06:03:55.982Z,12.39
2023-04-18T06:04:27.988Z,12.39
2023-04-18T06:04:59.971Z,12.39
2023-04-18T06:05:32.659Z,12.23
2023-04-18T06:06:03.542Z,11.91
2023-04-18T06:06:36.022Z,11.02
2023-04-18T06:07:07.626Z,11.02
2023-04-18T06:07:37.033Z,11.02
2023-04-18T06:07:55.653Z,11.91
2023-04-18T06:08:27.882Z,11.91
2023-04-18T06:08:59.665Z,12.07
2023-04-18T06:09:32.007Z,12.07
2023-04-18T06:10:04.985Z,12.23
2023-04-18T06:10:38.956Z,12.39
2023-04-18T06:11:07.752Z,13.11
2023-04-18T06:11:36.841Z,13.84
2023-04-18T06:11:55.655Z,14.16
2023-04-18T06:12:27.878Z,14.40
2023-04-18T06:12:59.678Z,13.84
2023-04-18T06:13:31.872Z,13.84
2023-04-18T06:14:03.766Z,13.11
2023-04-18T06:14:35.645Z,13.28
2023-04-18T06:15:08.991Z,13.11
2023-04-18T06:15:36.969Z,13.11
2023-04-18T06:15:56.223Z,13.11
2023-04-18T06:16:28.121Z,13.84
2023-04-18T06:17:00.088Z,13.84
2023-04-18T06:17:32.166Z,13.84
2023-04-18T06:18:03.743Z,13.35
2023-04-18T06:18:35.752Z,13.35
2023-04-18T06:19:07.716Z,13.84
2023-04-18T06:19:36.934Z,13.84
2023-04-18T06:19:55.735Z,13.35
2023-04-18T06:20:28.452Z,13.35
2023-04-18T06:20:59.594Z,13.35
2023-04-18T06:21:32.039Z,13.35
2023-04-18T06:22:03.617Z,13.35
2023-04-18T06:22:35.645Z,12.79
2023-04-18T06:23:23.537Z,12.79
2023-04-18T06:23:55.516Z,12.79
2023-04-18T06:24:28.331Z,12.79
2023-04-18T06:24:59.700Z,12.23
2023-04-18T06:25:32.588Z,10.78
2023-04-18T06:26:03.529Z,10.22
2023-04-18T06:26:35.912Z,11.34
2023-04-18T06:27:14.954Z,10.22
2023-04-18T06:27:36.913Z,9.49
2023-04-18T06:27:55.669Z,9.49
2023-04-18T06:28:28.099Z,10.22
2023-04-18T06:28:59.563Z,10.22
2023-04-18T06:29:32.214Z,10.22
2023-04-18T06:30:05.662Z,11.34
2023-04-18T06:30:35.840Z,11.34
2023-04-18T06:31:07.837Z,11.34
2023-04-18T06:31:37.107Z,11.34
2023-04-18T06:31:55.994Z,10.78
2023-04-18T06:32:28.013Z,10.78
2023-04-18T06:32:59.698Z,11.34
2023-04-18T06:33:31.889Z,11.90
2023-04-18T06:34:03.592Z,12.07
2023-04-18T06:34:35.683Z,12.07
2023-04-18T06:35:08.411Z,12.79
2023-04-18T06:35:37.548Z,12.79